Cuero, Texas
Current Conditions -  °F | °C
As of 9:51 PM on Tuesday 25 Nov 2014 (Local Time) from KVCT Reporting Station
Clear Clear  
Wind Chill: 45°   Ceiling: Unl
Heat Index: 49°   Visibility: 10mi
Dew Point: 37°   Wind: 8mph
Humidity: 64%   Direction: 200°SSW
Pressure: 30.27"   Gusts: NA
Location:  29.09°N, 97.29°W
Report Text: KVCT 260351Z 20007KT 10SM CLR 09/03 A3027 RMK AO2 SLP249 T00940028
Loading
Personal Weather Stations






























Interactive Weather Map New forecast layout! Learn more

10-Day Weather Forecast

Advertisements
Track Severe Weather on mobile